sensor_id;sensor_type;location;lat;lon;timestamp;pressure;altitude;pressure_sealevel;temperature;humidity
73341;BME280;61578;52.002;5.468;2023-11-21T00:00:08;101027.97;;;8.63;83.09
73341;BME280;61578;52.002;5.468;2023-11-21T00:00:42;101027.25;;;8.59;83.47
73341;BME280;61578;52.002;5.468;2023-11-21T00:01:13;101021.38;;;8.54;82.91
73341;BME280;61578;52.002;5.468;2023-11-21T00:01:44;101019.47;;;8.56;83.28
73341;BME280;61578;52.002;5.468;2023-11-21T00:02:14;101031.63;;;8.60;83.22
73341;BME280;61578;52.002;5.468;2023-11-21T00:02:46;101024.59;;;8.59;83.27
73341;BME280;61578;52.002;5.468;2023-11-21T00:03:17;101021.53;;;8.51;83.55
73341;BME280;61578;52.002;5.468;2023-11-21T00:03:49;101015.22;;;8.54;83.42
73341;BME280;61578;52.002;5.468;2023-11-21T00:04:20;101001.78;;;8.41;83.37
73341;BME280;61578;52.002;5.468;2023-11-21T00:04:51;100995.47;;;8.43;83.62
73341;BME280;61578;52.002;5.468;2023-11-21T00:05:22;101031.53;;;8.62;83.81
73341;BME280;61578;52.002;5.468;2023-11-21T00:05:53;101026.31;;;8.60;83.79
73341;BME280;61578;52.002;5.468;2023-11-21T00:06:24;101023.81;;;8.57;83.80
73341;BME280;61578;52.002;5.468;2023-11-21T00:06:55;101011.50;;;8.40;83.47
73341;BME280;61578;52.002;5.468;2023-11-21T00:07:26;101009.44;;;8.45;83.42
73341;BME280;61578;52.002;5.468;2023-11-21T00:07:57;101034.25;;;8.60;83.57
73341;BME280;61578;52.002;5.468;2023-11-21T00:08:28;101035.97;;;8.61;83.85
73341;BME280;61578;52.002;5.468;2023-11-21T00:08:59;101030.75;;;8.60;83.54
73341;BME280;61578;52.002;5.468;2023-11-21T00:09:30;101032.41;;;8.62;84.01
73341;BME280;61578;52.002;5.468;2023-11-21T00:10:00;101035.91;;;8.63;83.77
73341;BME280;61578;52.002;5.468;2023-11-21T00:10:31;101029.03;;;8.59;83.38
73341;BME280;61578;52.002;5.468;2023-11-21T00:11:02;101035.13;;;8.61;83.70
73341;BME280;61578;52.002;5.468;2023-11-21T00:11:35;101009.44;;;8.45;83.66
73341;BME280;61578;52.002;5.468;2023-11-21T00:12:06;101017.16;;;8.50;84.11
73341;BME280;61578;52.002;5.468;2023-11-21T00:12:40;101041.19;;;8.63;83.94
73341;BME280;61578;52.002;5.468;2023-11-21T00:13:12;101035.91;;;8.63;83.94
73341;BME280;61578;52.002;5.468;2023-11-21T00:13:43;101032.47;;;8.61;83.91
73341;BME280;61578;52.002;5.468;2023-11-21T00:14:14;101035.13;;;8.61;84.10
73341;BME280;61578;52.002;5.468;2023-11-21T00:14:48;101033.06;;;8.66;83.90
73341;BME280;61578;52.002;5.468;2023-11-21T00:15:18;101023.59;;;8.62;84.01
73341;BME280;61578;52.002;5.468;2023-11-21T00:15:49;101016.94;;;8.55;83.63
73341;BME280;61578;52.002;5.468;2023-11-21T00:16:20;101036.50;;;8.68;84.14
73341;BME280;61578;52.002;5.468;2023-11-21T00:16:52;101025.91;;;8.68;84.01
73341;BME280;61578;52.002;5.468;2023-11-21T00:17:23;101028.81;;;8.63;83.83
73341;BME280;61578;52.002;5.468;2023-11-21T00:17:54;101020.69;;;8.66;84.00
73341;BME280;61578;52.002;5.468;2023-11-21T00:18:25;101006.94;;;8.60;83.83
73341;BME280;61578;52.002;5.468;2023-11-21T00:18:56;101027.63;;;8.69;84.11
73341;BME280;61578;52.002;5.468;2023-11-21T00:19:26;101026.53;;;8.73;83.83
73341;BME280;61578;52.002;5.468;2023-11-21T00:19:57;101031.63;;;8.76;84.01
73341;BME280;61578;52.002;5.468;2023-11-21T00:20:29;101032.75;;;8.72;84.00
73341;BME280;61578;52.002;5.468;2023-11-21T00:20:59;101032.59;;;8.75;84.12
73341;BME280;61578;52.002;5.468;2023-11-21T00:21:30;101038.91;;;8.72;83.91
73341;BME280;61578;52.002;5.468;2023-11-21T00:22:01;101036.94;;;8.76;84.17
73341;BME280;61578;52.002;5.468;2023-11-21T00:22:33;101029.97;;;8.75;84.63
73341;BME280;61578;52.002;5.468;2023-11-21T00:23:07;101027.38;;;8.73;84.37
73341;BME280;61578;52.002;5.468;2023-11-21T00:23:37;101029.09;;;8.74;84.31
73341;BME280;61578;52.002;5.468;2023-11-21T00:24:08;101041.00;;;8.83;84.52
73341;BME280;61578;52.002;5.468;2023-11-21T00:24:39;101045.34;;;8.84;84.22
73341;BME280;61578;52.002;5.468;2023-11-21T00:25:10;101028.84;;;8.79;84.24
73341;BME280;61578;52.002;5.468;2023-11-21T00:25:41;101049.72;;;8.85;83.96
73341;BME280;61578;52.002;5.468;2023-11-21T00:26:12;101043.44;;;8.86;84.10
73341;BME280;61578;52.002;5.468;2023-11-21T00:26:42;101039.13;;;8.85;84.14
73341;BME280;61578;52.002;5.468;2023-11-21T00:27:13;101028.59;;;8.83;83.99
73341;BME280;61578;52.002;5.468;2023-11-21T00:27:44;101014.22;;;8.72;84.15
73341;BME280;61578;52.002;5.468;2023-11-21T00:28:15;101030.41;;;8.83;84.41
73341;BME280;61578;52.002;5.468;2023-11-21T00:28:46;101041.66;;;8.86;84.11
73341;BME280;61578;52.002;5.468;2023-11-21T00:29:17;101039.88;;;8.87;84.30
73341;BME280;61578;52.002;5.468;2023-11-21T00:29:48;101035.34;;;8.89;84.41
73341;BME280;61578;52.002;5.468;2023-11-21T00:30:19;101031.91;;;8.87;84.51
73341;BME280;61578;52.002;5.468;2023-11-21T00:30:51;101024.91;;;8.86;84.35
73341;BME280;61578;52.002;5.468;2023-11-21T00:31:22;101031.84;;;8.89;84.14
73341;BME280;61578;52.002;5.468;2023-11-21T00:31:54;101034.50;;;8.89;84.39
73341;BME280;61578;52.002;5.468;2023-11-21T00:32:25;101031.63;;;8.93;84.53
73341;BME280;61578;52.002;5.468;2023-11-21T00:32:56;101034.41;;;8.90;84.76
73341;BME280;61578;52.002;5.468;2023-11-21T00:33:27;101047.50;;;8.93;84.43
73341;BME280;61578;52.002;5.468;2023-11-21T00:33:58;101031.91;;;8.87;84.14
73341;BME280;61578;52.002;5.468;2023-11-21T00:34:28;101041.44;;;8.91;84.60
73341;BME280;61578;52.002;5.468;2023-11-21T00:34:59;101045.72;;;8.94;84.58
73341;BME280;61578;52.002;5.468;2023-11-21T00:35:30;101043.91;;;8.94;84.65
73341;BME280;61578;52.002;5.468;2023-11-21T00:36:01;101037.69;;;8.95;84.64
73341;BME280;61578;52.002;5.468;2023-11-21T00:36:32;101017.31;;;8.80;84.45
73341;BME280;61578;52.002;5.468;2023-11-21T00:37:03;101032.47;;;8.94;84.26
73341;BME280;61578;52.002;5.468;2023-11-21T00:37:34;101037.00;;;8.92;84.50
73341;BME280;61578;52.002;5.468;2023-11-21T00:38:04;101024.69;;;8.91;84.45
73341;BME280;61578;52.002;5.468;2023-11-21T00:38:36;101035.78;;;8.97;84.44
73341;BME280;61578;52.002;5.468;2023-11-21T00:39:10;101038.69;;;8.93;84.15
73341;BME280;61578;52.002;5.468;2023-11-21T00:39:42;101028.19;;;8.91;84.57
73341;BME280;61578;52.002;5.468;2023-11-21T00:40:13;101042.97;;;8.95;84.55
73341;BME280;61578;52.002;5.468;2023-11-21T00:40:46;101029.19;;;8.89;84.39
73341;BME280;61578;52.002;5.468;2023-11-21T00:41:16;101037.84;;;8.92;84.56
73341;BME280;61578;52.002;5.468;2023-11-21T00:41:47;101040.41;;;8.94;84.72
73341;BME280;61578;52.002;5.468;2023-11-21T00:42:18;101045.72;;;8.94;84.56
73341;BME280;61578;52.002;5.468;2023-11-21T00:42:49;101036.72;;;8.96;84.71
73341;BME280;61578;52.002;5.468;2023-11-21T00:43:20;101034.25;;;8.93;85.05
73341;BME280;61578;52.002;5.468;2023-11-21T00:43:51;101039.56;;;8.93;84.96
73341;BME280;61578;52.002;5.468;2023-11-21T00:44:21;101045.78;;;8.92;84.79
73341;BME280;61578;52.002;5.468;2023-11-21T00:44:52;101037.75;;;8.94;84.79
73341;BME280;61578;52.002;5.468;2023-11-21T00:45:23;101037.69;;;8.95;85.01
73341;BME280;61578;52.002;5.468;2023-11-21T00:45:54;101045.44;;;8.98;85.25
73341;BME280;61578;52.002;5.468;2023-11-21T00:46:24;101028.25;;;8.90;85.32
73341;BME280;61578;52.002;5.468;2023-11-21T00:46:58;101049.03;;;8.97;85.06
73341;BME280;61578;52.002;5.468;2023-11-21T00:47:29;101033.22;;;8.96;85.01
73341;BME280;61578;52.002;5.468;2023-11-21T00:48:00;101048.16;;;8.97;84.93
73341;BME280;61578;52.002;5.468;2023-11-21T00:48:30;101052.44;;;8.99;85.25
73341;BME280;61578;52.002;5.468;2023-11-21T00:49:01;101056.03;;;8.98;84.87
73341;BME280;61578;52.002;5.468;2023-11-21T00:49:34;101049.81;;;8.99;84.55
73341;BME280;61578;52.002;5.468;2023-11-21T00:50:05;101045.44;;;8.98;85.02
73341;BME280;61578;52.002;5.468;2023-11-21T00:50:37;101042.78;;;8.98;84.76
73341;BME280;61578;52.002;5.468;2023-11-21T00:51:08;101052.38;;;9.01;84.81
73341;BME280;61578;52.002;5.468;2023-11-21T00:51:39;101046.22;;;9.00;84.61
73341;BME280;61578;52.002;5.468;2023-11-21T00:52:10;101046.56;;;8.94;84.58
73341;BME280;61578;52.002;5.468;2023-11-21T00:52:40;101049.81;;;8.99;84.79
73341;BME280;61578;52.002;5.468;2023-11-21T00:53:11;101065.53;;;9.02;85.12
73341;BME280;61578;52.002;5.468;2023-11-21T00:53:42;101053.06;;;9.04;85.13
73341;BME280;61578;52.002;5.468;2023-11-21T00:54:13;101052.28;;;9.02;84.96
73341;BME280;61578;52.002;5.468;2023-11-21T00:54:43;101049.66;;;9.02;84.83
73341;BME280;61578;52.002;5.468;2023-11-21T00:55:15;101028.41;;;8.86;84.80
73341;BME280;61578;52.002;5.468;2023-11-21T00:55:46;101058.44;;;9.03;84.76
73341;BME280;61578;52.002;5.468;2023-11-21T00:56:16;101020.47;;;8.86;84.89
73341;BME280;61578;52.002;5.468;2023-11-21T00:56:47;101049.56;;;9.04;84.79
73341;BME280;61578;52.002;5.468;2023-11-21T00:57:18;101061.88;;;9.05;84.96
73341;BME280;61578;52.002;5.468;2023-11-21T00:57:49;101059.03;;;9.08;85.00
73341;BME280;61578;52.002;5.468;2023-11-21T00:58:20;101043.81;;;8.96;84.83
73341;BME280;61578;52.002;5.468;2023-11-21T00:58:51;101063.66;;;9.04;84.90
73341;BME280;61578;52.002;5.468;2023-11-21T00:59:23;101041.34;;;8.93;84.71
73341;BME280;61578;52.002;5.468;2023-11-21T00:59:54;101068.78;;;9.07;84.58
73341;BME280;61578;52.002;5.468;2023-11-21T01:00:25;101064.19;;;9.11;85.34
73341;BME280;61578;52.002;5.468;2023-11-21T01:00:56;101042.88;;;8.97;84.84
73341;BME280;61578;52.002;5.468;2023-11-21T01:01:28;101065.81;;;9.13;85.10
73341;BME280;61578;52.002;5.468;2023-11-21T01:01:58;101059.66;;;9.13;85.02
73341;BME280;61578;52.002;5.468;2023-11-21T01:02:31;101061.19;;;9.17;84.76
73341;BME280;61578;52.002;5.468;2023-11-21T01:03:02;101064.69;;;9.17;84.94
73341;BME280;61578;52.002;5.468;2023-11-21T01:03:33;101062.91;;;9.18;85.20
73341;BME280;61578;52.002;5.468;2023-11-21T01:04:04;101064.59;;;9.19;84.66
73341;BME280;61578;52.002;5.468;2023-11-21T01:04:35;101071.69;;;9.18;85.00
73341;BME280;61578;52.002;5.468;2023-11-21T01:05:06;101069.06;;;9.18;85.06
73341;BME280;61578;52.002;5.468;2023-11-21T01:05:38;101082.22;;;9.20;85.13
73341;BME280;61578;52.002;5.468;2023-11-21T01:06:09;101067.25;;;9.19;85.11
73341;BME280;61578;52.002;5.468;2023-11-21T01:06:39;101063.84;;;9.17;85.20
73341;BME280;61578;52.002;5.468;2023-11-21T01:07:10;101051.00;;;9.09;85.10
73341;BME280;61578;52.002;5.468;2023-11-21T01:07:41;101069.06;;;9.18;84.67
73341;BME280;61578;52.002;5.468;2023-11-21T01:08:12;101066.41;;;9.18;85.18
73341;BME280;61578;52.002;5.468;2023-11-21T01:08:44;101072.47;;;9.20;84.89
73341;BME280;61578;52.002;5.468;2023-11-21T01:09:14;101080.44;;;9.20;85.12
73341;BME280;61578;52.002;5.468;2023-11-21T01:09:45;101069.91;;;9.19;84.87
73341;BME280;61578;52.002;5.468;2023-11-21T01:10:16;101075.91;;;9.22;84.95
73341;BME280;61578;52.002;5.468;2023-11-21T01:10:47;101068.13;;;9.19;85.01
73341;BME280;61578;52.002;5.468;2023-11-21T01:11:18;101078.72;;;9.19;85.01
73341;BME280;61578;52.002;5.468;2023-11-21T01:11:49;101077.78;;;9.20;85.04
73341;BME280;61578;52.002;5.468;2023-11-21T01:12:20;101072.75;;;9.16;84.97
73341;BME280;61578;52.002;5.468;2023-11-21T01:12:50;101079.66;;;9.18;84.90
73341;BME280;61578;52.002;5.468;2023-11-21T01:13:21;101083.94;;;9.21;85.34
73341;BME280;61578;52.002;5.468;2023-11-21T01:13:52;101084.00;;;9.19;85.00
73341;BME280;61578;52.002;5.468;2023-11-21T01:14:23;101086.59;;;9.21;85.25
73341;BME280;61578;52.002;5.468;2023-11-21T01:14:56;101084.78;;;9.21;85.25
73341;BME280;61578;52.002;5.468;2023-11-21T01:15:30;101083.22;;;9.17;84.73
73341;BME280;61578;52.002;5.468;2023-11-21T01:16:01;101080.34;;;9.22;85.23
73341;BME280;61578;52.002;5.468;2023-11-21T01:16:32;101083.16;;;9.19;84.91
73341;BME280;61578;52.002;5.468;2023-11-21T01:17:03;101084.09;;;9.18;84.82
73341;BME280;61578;52.002;5.468;2023-11-21T01:17:35;101075.56;;;9.13;85.19
73341;BME280;61578;52.002;5.468;2023-11-21T01:18:06;101078.63;;;9.21;85.25
73341;BME280;61578;52.002;5.468;2023-11-21T01:18:37;101083.84;;;9.22;85.42
73341;BME280;61578;52.002;5.468;2023-11-21T01:19:08;101078.72;;;9.19;85.08
73341;BME280;61578;52.002;5.468;2023-11-21T01:19:39;101086.50;;;9.22;85.19
73341;BME280;61578;52.002;5.468;2023-11-21T01:20:11;101083.84;;;9.22;85.28
73341;BME280;61578;52.002;5.468;2023-11-21T01:20:43;101079.56;;;9.20;85.18
73341;BME280;61578;52.002;5.468;2023-11-21T01:21:14;101063.47;;;9.07;85.11
73341;BME280;61578;52.002;5.468;2023-11-21T01:21:45;101060.91;;;9.06;84.90
73341;BME280;61578;52.002;5.468;2023-11-21T01:22:15;101082.28;;;9.18;85.25
73341;BME280;61578;52.002;5.468;2023-11-21T01:22:46;101088.28;;;9.22;84.86
73341;BME280;61578;52.002;5.468;2023-11-21T01:23:19;101066.81;;;9.11;85.17
73341;BME280;61578;52.002;5.468;2023-11-21T01:23:50;101090.09;;;9.21;84.95
73341;BME280;61578;52.002;5.468;2023-11-21T01:24:21;101089.16;;;9.22;85.08
73341;BME280;61578;52.002;5.468;2023-11-21T01:24:53;101085.56;;;9.23;84.97
73341;BME280;61578;52.002;5.468;2023-11-21T01:25:23;101078.47;;;9.24;84.62
73341;BME280;61578;52.002;5.468;2023-11-21T01:25:56;101086.22;;;9.27;84.75
73341;BME280;61578;52.002;5.468;2023-11-21T01:26:27;101075.91;;;9.22;84.76
73341;BME280;61578;52.002;5.468;2023-11-21T01:26:58;101086.44;;;9.24;84.81
73341;BME280;61578;52.002;5.468;2023-11-21T01:27:29;101088.13;;;9.25;84.37
73341;BME280;61578;52.002;5.468;2023-11-21T01:27:59;101079.41;;;9.23;84.61
73341;BME280;61578;52.002;5.468;2023-11-21T01:28:30;101081.19;;;9.22;84.78
73341;BME280;61578;52.002;5.468;2023-11-21T01:29:01;101084.78;;;9.21;84.68
73341;BME280;61578;52.002;5.468;2023-11-21T01:29:32;101061.88;;;9.05;84.73
73341;BME280;61578;52.002;5.468;2023-11-21T01:30:03;101084.09;;;9.18;84.79
73341;BME280;61578;52.002;5.468;2023-11-21T01:30:34;101082.38;;;9.17;84.63
73341;BME280;61578;52.002;5.468;2023-11-21T01:31:06;101092.88;;;9.18;84.93
73341;BME280;61578;52.002;5.468;2023-11-21T01:31:37;101091.28;;;9.16;84.68
73341;BME280;61578;52.002;5.468;2023-11-21T01:32:08;101088.53;;;9.17;84.71
73341;BME280;61578;52.002;5.468;2023-11-21T01:32:40;101088.66;;;9.16;84.86
73341;BME280;61578;52.002;5.468;2023-11-21T01:33:11;101062.81;;;9.04;85.31
73341;BME280;61578;52.002;5.468;2023-11-21T01:33:42;101087.59;;;9.18;85.27
73341;BME280;61578;52.002;5.468;2023-11-21T01:34:13;101084.72;;;9.23;85.33
73341;BME280;61578;52.002;5.468;2023-11-21T01:34:44;101083.84;;;9.22;84.82
73341;BME280;61578;52.002;5.468;2023-11-21T01:35:15;101084.72;;;9.23;85.07
73341;BME280;61578;52.002;5.468;2023-11-21T01:35:46;101089.16;;;9.22;84.72
73341;BME280;61578;52.002;5.468;2023-11-21T01:36:17;101083.00;;;9.22;84.74
73341;BME280;61578;52.002;5.468;2023-11-21T01:36:47;101080.69;;;9.16;84.80
73341;BME280;61578;52.002;5.468;2023-11-21T01:37:18;101083.16;;;9.19;84.76
73341;BME280;61578;52.002;5.468;2023-11-21T01:37:49;101084.94;;;9.18;84.80
73341;BME280;61578;52.002;5.468;2023-11-21T01:38:20;101088.53;;;9.17;84.60
73341;BME280;61578;52.002;5.468;2023-11-21T01:38:51;101080.78;;;9.14;84.53
73341;BME280;61578;52.002;5.468;2023-11-21T01:39:22;101094.00;;;9.14;85.03
73341;BME280;61578;52.002;5.468;2023-11-21T01:39:54;101082.66;;;9.12;84.79
73341;BME280;61578;52.002;5.468;2023-11-21T01:40:26;101086.22;;;9.11;84.64
73341;BME280;61578;52.002;5.468;2023-11-21T01:40:56;101066.69;;;8.97;84.84
73341;BME280;61578;52.002;5.468;2023-11-21T01:41:28;101085.53;;;9.08;85.01
73341;BME280;61578;52.002;5.468;2023-11-21T01:41:59;101089.03;;;9.08;85.28
73341;BME280;61578;52.002;5.468;2023-11-21T01:42:29;101090.91;;;9.06;84.96
73341;BME280;61578;52.002;5.468;2023-11-21T01:43:01;101064.25;;;8.94;84.67
73341;BME280;61578;52.002;5.468;2023-11-21T01:43:34;101085.78;;;9.03;84.78
73341;BME280;61578;52.002;5.468;2023-11-21T01:44:05;101088.19;;;9.08;85.03
73341;BME280;61578;52.002;5.468;2023-11-21T01:44:38;101080.50;;;9.03;84.82
73341;BME280;61578;52.002;5.468;2023-11-21T01:45:10;101085.00;;;9.01;84.96
73341;BME280;61578;52.002;5.468;2023-11-21T01:45:43;101080.81;;;8.97;84.43
73341;BME280;61578;52.002;5.468;2023-11-21T01:46:15;101087.66;;;9.01;84.69
73341;BME280;61578;52.002;5.468;2023-11-21T01:46:47;101090.47;;;8.98;84.53
73341;BME280;61578;52.002;5.468;2023-11-21T01:47:18;101091.31;;;8.99;84.79
73341;BME280;61578;52.002;5.468;2023-11-21T01:47:49;101081.16;;;8.91;84.89
73341;BME280;61578;52.002;5.468;2023-11-21T01:48:20;101088.00;;;8.95;84.90
73341;BME280;61578;52.002;5.468;2023-11-21T01:48:52;101093.38;;;8.94;84.56
73341;BME280;61578;52.002;5.468;2023-11-21T01:49:24;101096.19;;;8.91;84.59
73341;BME280;61578;52.002;5.468;2023-11-21T01:49:55;101059.22;;;8.72;84.62
73341;BME280;61578;52.002;5.468;2023-11-21T01:50:26;101095.25;;;8.92;84.76
73341;BME280;61578;52.002;5.468;2023-11-21T01:50:58;101091.72;;;8.91;85.07
73341;BME280;61578;52.002;5.468;2023-11-21T01:51:29;101095.25;;;8.92;85.04
73341;BME280;61578;52.002;5.468;2023-11-21T01:52:02;101095.94;;;8.95;85.45
73341;BME280;61578;52.002;5.468;2023-11-21T01:52:35;101075.16;;;8.88;85.44
73341;BME280;61578;52.002;5.468;2023-11-21T01:53:07;101094.97;;;8.96;85.03
73341;BME280;61578;52.002;5.468;2023-11-21T01:53:39;101091.72;;;8.91;85.16
73341;BME280;61578;52.002;5.468;2023-11-21T01:54:10;101101.31;;;8.94;85.02
73341;BME280;61578;52.002;5.468;2023-11-21T01:54:42;101086.50;;;8.90;85.37
73341;BME280;61578;52.002;5.468;2023-11-21T01:55:16;101095.25;;;8.92;85.16
73341;BME280;61578;52.002;5.468;2023-11-21T01:55:51;101103.09;;;8.93;85.21
73341;BME280;61578;52.002;5.468;2023-11-21T01:56:23;101105.69;;;8.95;85.04
73341;BME280;61578;52.002;5.468;2023-11-21T01:56:54;101104.81;;;8.94;84.86
73341;BME280;61578;52.002;5.468;2023-11-21T01:57:25;101098.75;;;8.92;85.12
73341;BME280;61578;52.002;5.468;2023-11-21T01:57:57;101094.31;;;8.93;85.20
73341;BME280;61578;52.002;5.468;2023-11-21T01:58:28;101104.81;;;8.94;85.45
73341;BME280;61578;52.002;5.468;2023-11-21T01:59:02;101103.03;;;8.95;85.32
73341;BME280;61578;52.002;5.468;2023-11-21T01:59:35;101098.66;;;8.94;85.51
73341;BME280;61578;52.002;5.468;2023-11-21T02:00:07;101097.03;;;8.91;85.30
73341;BME280;61578;52.002;5.468;2023-11-21T02:00:49;101100.53;;;8.92;85.24
73341;BME280;61578;52.002;5.468;2023-11-21T02:01:21;101080.94;;;8.78;85.66
73341;BME280;61578;52.002;5.468;2023-11-21T02:01:52;101100.53;;;8.92;85.18
73341;BME280;61578;52.002;5.468;2023-11-21T02:02:23;101099.69;;;8.91;85.37
73341;BME280;61578;52.002;5.468;2023-11-21T02:02:54;101099.59;;;8.93;85.31
73341;BME280;61578;52.002;5.468;2023-11-21T02:03:25;101103.09;;;8.93;85.62
73341;BME280;61578;52.002;5.468;2023-11-21T02:03:56;101096.19;;;8.91;85.70
73341;BME280;61578;52.002;5.468;2023-11-21T02:04:27;101098.41;;;8.98;85.83
73341;BME280;61578;52.002;5.468;2023-11-21T02:04:58;101098.34;;;9.00;85.57
73341;BME280;61578;52.002;5.468;2023-11-21T02:05:29;101108.00;;;9.01;85.39
73341;BME280;61578;52.002;5.468;2023-11-21T02:06:00;101094.97;;;8.96;85.64
73341;BME280;61578;52.002;5.468;2023-11-21T02:06:31;101103.69;;;8.98;85.17
73341;BME280;61578;52.002;5.468;2023-11-21T02:07:02;101103.69;;;8.98;85.89
73341;BME280;61578;52.002;5.468;2023-11-21T02:07:36;101107.13;;;9.00;85.51
73341;BME280;61578;52.002;5.468;2023-11-21T02:08:08;101107.13;;;9.00;85.42
73341;BME280;61578;52.002;5.468;2023-11-21T02:08:40;101105.34;;;9.01;85.76
73341;BME280;61578;52.002;5.468;2023-11-21T02:09:12;101096.78;;;8.96;85.65
73341;BME280;61578;52.002;5.468;2023-11-21T02:09:45;101109.69;;;9.02;85.60
73341;BME280;61578;52.002;5.468;2023-11-21T02:10:16;101112.34;;;9.02;85.37
73341;BME280;61578;52.002;5.468;2023-11-21T02:10:47;101089.16;;;8.90;85.49
73341;BME280;61578;52.002;5.468;2023-11-21T02:11:18;101106.13;;;9.03;85.40
73341;BME280;61578;52.002;5.468;2023-11-21T02:11:49;101116.63;;;9.04;85.38
73341;BME280;61578;52.002;5.468;2023-11-21T02:12:20;101116.63;;;9.04;85.53
73341;BME280;61578;52.002;5.468;2023-11-21T02:12:51;101117.50;;;9.05;85.71
73341;BME280;61578;52.002;5.468;2023-11-21T02:13:22;101114.84;;;9.05;85.66
73341;BME280;61578;52.002;5.468;2023-11-21T02:13:53;101119.09;;;9.07;85.43
73341;BME280;61578;52.002;5.468;2023-11-21T02:14:25;101076.50;;;8.79;85.42
73341;BME280;61578;52.002;5.468;2023-11-21T02:14:58;101120.03;;;9.06;85.48
73341;BME280;61578;52.002;5.468;2023-11-21T02:15:29;101124.47;;;9.06;85.54
73341;BME280;61578;52.002;5.468;2023-11-21T02:16:01;101117.38;;;9.06;85.43
73341;BME280;61578;52.002;5.468;2023-11-21T02:16:32;101122.88;;;9.03;85.49
73341;BME280;61578;52.002;5.468;2023-11-21T02:17:03;101115.00;;;9.02;85.49
73341;BME280;61578;52.002;5.468;2023-11-21T02:17:35;101122.59;;;9.08;85.63
73341;BME280;61578;52.002;5.468;2023-11-21T02:18:06;101122.59;;;9.08;85.42
73341;BME280;61578;52.002;5.468;2023-11-21T02:18:38;101126.13;;;9.08;85.18
73341;BME280;61578;52.002;5.468;2023-11-21T02:19:12;101127.03;;;9.07;84.89
73341;BME280;61578;52.002;5.468;2023-11-21T02:19:49;101126.13;;;9.08;85.04
73341;BME280;61578;52.002;5.468;2023-11-21T02:20:22;101132.28;;;9.09;85.23
73341;BME280;61578;52.002;5.468;2023-11-21T02:20:55;101075.91;;;8.74;85.12
73341;BME280;61578;52.002;5.468;2023-11-21T02:21:27;101133.91;;;9.11;85.32
73341;BME280;61578;52.002;5.468;2023-11-21T02:22:01;101124.41;;;9.07;85.07
73341;BME280;61578;52.002;5.468;2023-11-21T02:22:39;101133.97;;;9.10;85.42
73341;BME280;61578;52.002;5.468;2023-11-21T02:23:12;101127.91;;;9.08;85.19
73341;BME280;61578;52.002;5.468;2023-11-21T02:23:43;101127.03;;;9.07;84.93
73341;BME280;61578;52.002;5.468;2023-11-21T02:24:14;101137.63;;;9.07;85.06
73341;BME280;61578;52.002;5.468;2023-11-21T02:24:46;101127.97;;;9.06;85.21
73341;BME280;61578;52.002;5.468;2023-11-21T02:25:17;101142.88;;;9.09;85.14
73341;BME280;61578;52.002;5.468;2023-11-21T02:25:48;101126.28;;;9.05;85.25
73341;BME280;61578;52.002;5.468;2023-11-21T02:26:19;101142.78;;;9.10;85.13
73341;BME280;61578;52.002;5.468;2023-11-21T02:26:51;101130.75;;;9.05;85.17
73341;BME280;61578;52.002;5.468;2023-11-21T02:27:22;101135.94;;;9.06;84.95
73341;BME280;61578;52.002;5.468;2023-11-21T02:27:54;101131.59;;;9.05;84.92
73341;BME280;61578;52.002;5.468;2023-11-21T02:28:26;101135.19;;;9.04;85.30
73341;BME280;61578;52.002;5.468;2023-11-21T02:28:56;101135.19;;;9.04;85.28
73341;BME280;61578;52.002;5.468;2023-11-21T02:29:28;101129.78;;;9.06;85.34
73341;BME280;61578;52.002;5.468;2023-11-21T02:30:00;101131.59;;;9.05;85.69
73341;BME280;61578;52.002;5.468;2023-11-21T02:30:31;101138.41;;;9.09;85.77
73341;BME280;61578;52.002;5.468;2023-11-21T02:31:02;101133.97;;;9.10;85.55
73341;BME280;61578;52.002;5.468;2023-11-21T02:31:35;101129.47;;;9.12;85.92
73341;BME280;61578;52.002;5.468;2023-11-21T02:32:06;101132.97;;;9.12;85.83
73341;BME280;61578;52.002;5.468;2023-11-21T02:32:36;101137.25;;;9.15;85.81
73341;BME280;61578;52.002;5.468;2023-11-21T02:33:08;101136.31;;;9.16;86.14
73341;BME280;61578;52.002;5.468;2023-11-21T02:33:39;101122.59;;;9.08;85.99
73341;BME280;61578;52.002;5.468;2023-11-21T02:34:09;101137.16;;;9.16;85.66
73341;BME280;61578;52.002;5.468;2023-11-21T02:34:40;101143.22;;;9.18;85.47
73341;BME280;61578;52.002;5.468;2023-11-21T02:35:11;101135.28;;;9.18;85.72
73341;BME280;61578;52.002;5.468;2023-11-21T02:35:42;101140.50;;;9.20;85.40
73341;BME280;61578;52.002;5.468;2023-11-21T02:36:13;101133.56;;;9.17;85.83
73341;BME280;61578;52.002;5.468;2023-11-21T02:36:44;101128.25;;;9.17;85.72
73341;BME280;61578;52.002;5.468;2023-11-21T02:37:15;101137.00;;;9.19;85.58
73341;BME280;61578;52.002;5.468;2023-11-21T02:37:49;101146.44;;;9.25;85.87
73341;BME280;61578;52.002;5.468;2023-11-21T02:38:21;101120.44;;;9.16;85.71
73341;BME280;61578;52.002;5.468;2023-11-21T02:38:52;101134.13;;;9.24;85.36
73341;BME280;61578;52.002;5.468;2023-11-21T02:39:22;101134.97;;;9.25;85.56
73341;BME280;61578;52.002;5.468;2023-11-21T02:39:54;101133.19;;;9.25;85.52
73341;BME280;61578;52.002;5.468;2023-11-21T02:40:25;101145.31;;;9.29;85.64
73341;BME280;61578;52.002;5.468;2023-11-21T02:40:57;101134.78;;;9.28;85.47
73341;BME280;61578;52.002;5.468;2023-11-21T02:41:29;101144.44;;;9.29;85.63
73341;BME280;61578;52.002;5.468;2023-11-21T02:42:01;101137.44;;;9.28;85.32
73341;BME280;61578;52.002;5.468;2023-11-21T02:42:32;101134.78;;;9.28;85.16
73341;BME280;61578;52.002;5.468;2023-11-21T02:43:02;101133.00;;;9.28;85.27
73341;BME280;61578;52.002;5.468;2023-11-21T02:43:36;101136.50;;;9.29;85.40
73341;BME280;61578;52.002;5.468;2023-11-21T02:44:10;101133.84;;;9.29;85.50
73341;BME280;61578;52.002;5.468;2023-11-21T02:44:40;101135.56;;;9.30;85.33
73341;BME280;61578;52.002;5.468;2023-11-21T02:45:13;101129.41;;;9.29;85.66
73341;BME280;61578;52.002;5.468;2023-11-21T02:45:46;101137.28;;;9.31;85.61
73341;BME280;61578;52.002;5.468;2023-11-21T02:46:17;101140.63;;;9.34;85.52